Time;durP1;ratioP1;P1;durP2;ratioP2;P2;SDS_P1;SDS_P2;PMS_P1;PMS_P2;Temp;Humidity;BMP_temperature;BMP_pressure;BME280_temperature;BME280_humidity;BME280_pressure;Samples;Min_cycle;Max_cycle;Signal;HPM_P1;HPM_P2
2021/06/07 00:00:10;;;;;;;;;;;13.70;1.40;;;14.63;100.00;95694.64;622472;224;25047;-69
2021/06/07 00:02:51;;;;;;;;;;;13.70;1.40;;;14.69;100.00;95692.42;653120;216;24836;-69
2021/06/07 00:05:32;;;;;;;;;;;13.70;1.40;;;14.72;100.00;95687.06;651364;216;24742;-69
2021/06/07 00:08:14;;;;;;;;;;;13.80;1.40;;;14.71;100.00;95691.11;654085;212;24826;-69
2021/06/07 00:10:55;;;;;;;;;;;13.70;1.40;;;14.74;100.00;95686.94;653045;216;24921;-70
2021/06/07 00:13:36;;;;;;;;;;;13.70;1.40;;;14.73;100.00;95687.95;652202;212;25685;-70
2021/06/07 00:16:18;;;;;;;;;;;13.80;1.40;;;14.67;100.00;95688.13;653941;216;24834;-69
2021/06/07 00:18:59;;;;;;;;;;;13.80;1.40;;;14.71;100.00;95683.11;653130;216;24837;-69
2021/06/07 00:21:43;;;;;;;;;;;13.80;1.40;;;14.76;100.00;95683.63;652600;216;25288;-69
2021/06/07 00:24:25;;;;;;;;;;;13.80;1.40;;;14.71;100.00;95682.88;653919;216;24813;-69
2021/06/07 00:27:06;;;;;;;;;;;13.80;1.40;;;14.65;100.00;95686.82;652682;212;24715;-69
2021/06/07 00:29:48;;;;;;;;;;;13.70;1.40;;;14.67;100.00;95687.80;653044;216;24835;-70
2021/06/07 00:32:29;;;;;;;;;;;13.80;1.40;;;14.63;100.00;95693.61;654234;212;24750;-70
2021/06/07 00:35:51;;;;;;;;;;;13.70;1.40;;;14.60;100.00;95692.41;648519;216;24791;-70
2021/06/07 00:38:32;;;;;;;;;;;13.80;1.40;;;14.67;100.00;95687.89;652934;216;24817;-70
2021/06/07 00:41:13;;;;;;;;;;;13.80;1.40;;;14.68;100.00;95687.63;653674;212;24823;-70
2021/06/07 00:43:55;;;;;;;;;;;13.80;1.40;;;14.74;100.00;95690.35;652450;216;24958;-69
2021/06/07 00:46:39;;;;;;;;;;;13.80;1.40;;;14.77;100.00;95684.91;653419;216;25269;-70
2021/06/07 00:49:20;;;;;;;;;;;13.80;1.40;;;14.77;100.00;95678.90;653174;216;24815;-70
2021/06/07 00:52:02;;;;;;;;;;;13.80;1.40;;;14.81;100.00;95676.27;652006;216;25246;-70
2021/06/07 00:54:43;;;;;;;;;;;13.80;1.40;;;14.84;100.00;95678.45;649470;216;25052;-69
2021/06/07 00:57:29;;;;;;;;;;;13.70;1.40;;;14.81;100.00;95681.97;629118;225;25353;-70
2021/06/07 01:00:12;;;;;;;;;;;13.70;1.40;;;14.73;100.00;95676.09;652031;216;25385;-70
2021/06/07 01:02:53;;;;;;;;;;;13.70;1.40;;;14.69;100.00;95673.66;653050;216;24833;-70
2021/06/07 01:05:35;;;;;;;;;;;13.70;1.40;;;14.70;100.00;95671.77;653216;216;24794;-70
2021/06/07 01:08:16;;;;;;;;;;;13.70;1.40;;;14.69;100.00;95673.43;651549;216;24713;-69
2021/06/07 01:10:58;;;;;;;;;;;13.70;1.40;;;14.66;100.00;95669.37;652378;216;24812;-70
2021/06/07 01:13:39;;;;;;;;;;;13.60;1.40;;;14.63;100.00;95666.73;652943;216;24820;-70
2021/06/07 01:16:20;;;;;;;;;;;13.60;1.40;;;14.64;100.00;95665.03;653757;216;24807;-70
2021/06/07 01:19:01;;;;;;;;;;;13.50;1.40;;;14.61;100.00;95663.28;653000;216;24817;-69
2021/06/07 01:21:43;;;;;;;;;;;13.40;1.40;;;14.53;100.00;95665.67;652679;212;25147;-70
2021/06/07 01:24:24;;;;;;;;;;;13.50;1.40;;;14.45;100.00;95674.27;652454;212;24818;-69
2021/06/07 01:27:07;;;;;;;;;;;13.40;1.40;;;14.41;100.00;95675.73;653438;216;24812;-70
2021/06/07 01:29:48;;;;;;;;;;;13.40;1.40;;;14.32;100.00;95669.45;651715;216;24790;-69
2021/06/07 01:32:29;;;;;;;;;;;13.30;1.40;;;14.27;100.00;95669.11;653275;212;24815;-70
2021/06/07 01:35:55;;;;;;;3.00;2.25;;;13.30;1.40;;;14.20;100.00;95666.95;620173;226;42670;-69
2021/06/07 01:38:36;;;;;;;2.40;2.20;;;13.20;1.40;;;14.18;100.00;95670.79;644859;216;31608;-70
2021/06/07 01:41:18;;;;;;;2.70;2.50;;;13.10;1.40;;;14.15;100.00;95673.97;646062;216;31602;-69
2021/06/07 01:44:03;;;;;;;2.60;2.30;;;13.00;1.40;;;14.10;100.00;95676.03;646521;212;31613;-70
2021/06/07 01:46:44;;;;;;;2.65;2.45;;;12.90;1.40;;;14.07;100.00;95673.28;646027;216;31582;-70
2021/06/07 01:49:26;;;;;;;3.57;2.80;;;12.90;1.40;;;14.07;100.00;95674.96;646898;216;31560;-70
2021/06/07 01:52:08;;;;;;;2.90;2.70;;;12.90;1.40;;;14.02;100.00;95673.28;646935;212;31594;-70
2021/06/07 01:54:50;;;;;;;3.30;3.00;;;12.80;1.40;;;14.07;100.00;95674.33;618067;226;32102;-70
2021/06/07 01:57:34;;;;;;;2.80;2.60;;;12.90;1.40;;;14.03;100.00;95674.38;648175;216;33563;-68
2021/06/07 02:00:21;;;;;;;3.22;2.92;;;12.90;1.40;;;14.07;100.00;95674.22;646739;216;31586;-69
2021/06/07 02:03:02;;;;;;;3.30;3.00;;;12.90;1.40;;;14.12;100.00;95671.77;647608;212;31594;-69
2021/06/07 02:05:44;;;;;;;2.80;2.60;;;12.80;1.40;;;14.11;100.00;95674.84;646663;216;31564;-70
2021/06/07 02:08:29;;;;;;;2.90;2.70;;;12.80;1.40;;;14.16;100.00;95678.69;647186;212;32122;-69
2021/06/07 02:11:27;;;;;;;3.10;2.80;;;12.80;1.40;;;14.16;100.00;95678.11;645322;216;31605;-69
2021/06/07 02:14:08;;;;;;;3.40;3.10;;;12.80;1.40;;;14.16;100.00;95677.05;644961;212;32726;-69
2021/06/07 02:16:50;;;;;;;3.00;2.70;;;12.70;1.40;;;14.11;100.00;95674.09;619006;226;32132;-69
2021/06/07 02:22:06;;;;;;;3.75;2.78;;;12.70;1.40;;;14.03;100.00;95677.11;647171;212;33868;-69
2021/06/07 02:24:48;;;;;;;4.07;2.78;;;12.70;1.40;;;14.06;100.00;95678.21;645558;216;31685;-68
2021/06/07 02:27:29;;;;;;;3.60;2.92;;;12.70;1.40;;;14.07;100.00;95677.98;647069;216;32214;-69
2021/06/07 02:32:50;;;;;;;3.55;3.25;;;12.70;1.40;;;14.07;100.00;95685.02;646084;216;31712;-70
2021/06/07 02:38:28;;;;;;;3.90;3.20;;;12.80;1.40;;;14.18;100.00;95686.22;646992;212;43363;-71
2021/06/07 02:41:13;;;;;;;3.50;3.20;;;12.80;1.40;;;14.07;100.00;95688.86;645816;216;31616;-70
2021/06/07 02:43:55;;;;;;;3.60;3.03;;;12.80;1.40;;;14.04;100.00;95681.51;647119;216;32101;-70
2021/06/07 02:46:36;;;;;;;2.92;2.60;;;12.70;1.40;;;13.94;100.00;95679.30;647222;212;31596;-70
2021/06/07 02:49:18;;;;;;;2.50;2.10;;;12.60;1.40;;;13.81;100.00;95676.67;647651;212;42454;-69
2021/06/07 02:52:04;;;;;;;2.10;1.90;;;12.50;1.40;;;13.67;100.00;95679.87;617815;226;32079;-70
2021/06/07 02:54:46;;;;;;;6.70;2.05;;;12.30;1.40;;;13.38;100.00;95679.53;647377;216;31569;-70
2021/06/07 02:57:28;;;;;;;1.60;1.50;;;12.20;1.40;;;13.33;100.00;95680.36;646655;212;31539;-70
2021/06/07 03:00:15;;;;;;;2.97;1.90;;;12.20;1.40;;;13.30;100.00;95680.24;620177;226;32054;-70
2021/06/07 03:02:57;;;;;;;2.83;2.63;;;12.20;1.40;;;13.26;100.00;95679.53;646066;216;31639;-70
2021/06/07 03:05:39;;;;;;;3.40;2.20;;;12.20;1.40;;;13.43;100.00;95679.52;647020;216;31950;-70
2021/06/07 03:08:21;;;;;;;2.85;2.17;;;12.10;1.40;;;13.41;100.00;95680.66;646845;216;31987;-70
2021/06/07 03:11:03;;;;;;;4.20;2.33;;;12.10;1.40;;;13.36;100.00;95675.98;645201;212;31539;-70
2021/06/07 03:13:44;;;;;;;2.33;2.13;;;12.10;1.40;;;13.40;100.00;95677.60;646413;212;42735;-70
2021/06/07 03:16:26;;;;;;;2.60;2.00;;;12.10;1.40;;;13.53;100.00;95674.44;646316;212;42254;-70
2021/06/07 03:19:08;;;;;;;2.60;2.17;;;12.20;1.40;;;13.54;100.00;95676.19;646277;216;31578;-70
2021/06/07 03:21:49;;;;;;;2.23;2.03;;;12.20;1.40;;;13.56;100.00;95673.46;647462;216;31608;-70
2021/06/07 03:24:31;;;;;;;2.00;1.80;;;12.20;1.40;;;13.52;100.00;95675.21;647464;212;42219;-69
2021/06/07 03:27:13;;;;;;;3.10;1.70;;;12.20;1.40;;;13.40;100.00;95677.48;644669;216;31686;-69
2021/06/07 03:29:57;;;;;;;1.87;1.77;;;12.10;1.40;;;13.40;100.00;95676.11;646696;216;31593;-69
2021/06/07 03:32:39;;;;;;;3.08;2.40;;;12.20;1.40;;;13.44;100.00;95678.61;646054;216;31581;-70
2021/06/07 03:35:51;;;;;;;2.30;2.10;;;12.30;1.40;;;13.34;100.00;95679.57;646350;212;31557;-69
2021/06/07 03:38:33;;;;;;;2.57;2.27;;;12.40;1.40;;;13.38;100.00;95677.52;620474;225;31854;-69
2021/06/07 03:41:15;;;;;;;4.00;2.60;;;12.50;1.40;;;13.39;100.00;95676.80;645516;216;31569;-70
2021/06/07 03:43:56;;;;;;;2.60;2.40;;;12.50;1.40;;;13.56;100.00;95679.06;645497;216;31582;-69
2021/06/07 03:46:38;;;;;;;2.90;1.90;;;12.50;1.40;;;13.63;100.00;95685.43;646708;216;31574;-70
2021/06/07 03:49:19;;;;;;;4.43;2.53;;;12.50;1.40;;;13.78;100.00;95687.08;646736;216;31619;-70
2021/06/07 03:52:01;;;;;;;3.50;3.00;;;12.60;1.40;;;13.93;100.00;95688.84;646746;216;31548;-70
2021/06/07 03:54:43;;;;;;;3.17;2.80;;;12.60;1.40;;;13.99;100.00;95693.50;646861;216;31580;-69
2021/06/07 03:57:27;;;;;;;2.50;2.30;;;12.60;1.40;;;13.91;100.00;95697.70;646660;212;31567;-70
2021/06/07 04:00:12;;;;;;;3.20;2.40;;;12.70;1.40;;;13.87;100.00;95702.68;644747;212;31752;-69
2021/06/07 04:02:53;;;;;;;3.93;2.40;;;12.70;1.40;;;13.97;100.00;95700.94;646684;216;32215;-69
2021/06/07 04:05:35;;;;;;;2.53;2.30;;;12.80;1.40;;;14.03;100.00;95702.37;619196;222;32532;-69
2021/06/07 04:08:17;;;;;;;2.97;2.40;;;12.90;1.40;;;14.11;100.00;95702.61;645906;212;32110;-69
2021/06/07 04:10:58;;;;;;;3.25;2.03;;;13.10;1.40;;;14.30;100.00;95703.33;645774;212;32169;-70
2021/06/07 04:13:40;;;;;;;4.70;2.00;;;13.20;1.40;;;14.28;100.00;95700.72;644539;216;32360;-69
2021/06/07 04:16:25;;;;;;;2.20;2.00;;;13.20;1.40;;;14.57;100.00;95700.74;646828;216;32944;-70
2021/06/07 04:19:07;;;;;;;2.00;1.80;;;13.30;1.40;;;14.59;100.00;95703.23;645895;212;42176;-70
2021/06/07 04:21:48;;;;;;;2.10;1.90;;;13.30;1.40;;;14.68;100.00;95701.99;645499;216;31888;-70
2021/06/07 04:24:30;;;;;;;2.17;1.80;;;13.40;1.40;;;14.84;100.00;95697.22;646577;216;42212;-70
2021/06/07 04:27:13;;;;;;;2.30;1.70;;;13.40;1.40;;;14.56;100.00;95702.48;646716;212;33269;-69
2021/06/07 04:29:53;;;;;;;2.08;1.67;;;13.30;1.40;;;14.40;100.00;95705.54;645276;216;31597;-70
2021/06/07 04:32:35;;;;;;;1.90;1.65;;;13.30;1.40;;;14.47;100.00;95697.33;646686;212;33365;-70
2021/06/07 04:35:51;;;;;;;1.70;1.60;;;13.40;1.40;;;14.59;100.00;95700.62;647220;215;31588;-70
2021/06/07 04:38:33;;;;;;;1.90;1.80;;;13.40;1.40;;;14.43;100.00;95692.54;618129;226;40975;-70
2021/06/07 04:41:14;;;;;;;1.90;1.80;;;13.40;1.40;;;14.36;100.00;95692.44;647581;216;32095;-69
2021/06/07 04:43:56;;;;;;;2.40;1.70;;;13.40;1.40;;;14.38;100.00;95689.95;646931;216;32523;-70
2021/06/07 04:46:38;;;;;;;1.52;1.42;;;13.40;1.40;;;14.56;100.00;95693.89;646742;212;31567;-70
2021/06/07 04:49:20;;;;;;;1.90;1.70;;;13.50;1.40;;;14.49;100.00;95694.09;646217;212;41581;-70
2021/06/07 04:52:01;;;;;;;2.08;1.60;;;13.50;1.40;;;14.69;100.00;95697.30;645948;216;39349;-71
2021/06/07 04:54:43;;;;;;;2.30;1.90;;;13.50;1.40;;;14.64;100.00;95696.34;646628;212;31505;-72
2021/06/07 04:57:25;;;;;;;2.40;1.80;;;13.50;1.40;;;14.90;100.00;95691.84;646645;216;35595;-71
2021/06/07 05:00:08;;;;;;;2.00;1.90;;;13.60;1.40;;;14.99;100.00;95689.30;645197;212;31968;-70
2021/06/07 05:02:50;;;;;;;2.40;2.20;;;13.70;1.40;;;15.25;100.00;95688.01;647129;216;42209;-72
2021/06/07 05:05:31;;;;;;;2.37;2.17;;;13.90;1.40;;;15.36;100.00;95696.00;646096;212;41569;-71
2021/06/07 05:08:13;;;;;;;2.10;1.98;;;13.90;1.40;;;15.33;100.00;95694.09;646352;216;42179;-71
2021/06/07 05:10:55;;;;;;;2.40;1.87;;;13.90;1.40;;;15.30;100.00;95696.50;647149;212;42939;-70
2021/06/07 05:13:36;;;;;;;1.90;1.50;;;14.00;1.40;;;15.33;100.00;95696.46;647986;216;33016;-70
2021/06/07 05:16:18;;;;;;;2.00;1.80;;;14.00;1.40;;;15.35;100.00;95701.39;617801;223;37715;-71
2021/06/07 05:19:03;;;;;;;2.28;1.73;;;14.00;1.40;;;15.36;100.00;95702.91;646809;216;42341;-70
2021/06/07 05:21:45;;;;;;;2.13;2.00;;;14.10;1.40;;;15.56;100.00;95701.56;646265;216;32164;-70
2021/06/07 05:24:27;;;;;;;1.70;1.50;;;14.20;1.40;;;15.47;100.00;95699.56;646445;216;31724;-72
2021/06/07 05:27:09;;;;;;;1.30;1.20;;;14.20;1.40;;;15.34;100.00;95699.80;645969;216;31912;-72
2021/06/07 05:29:51;;;;;;;1.27;1.17;;;14.20;1.40;;;15.62;100.00;95701.67;647113;212;31534;-71
2021/06/07 05:32:32;;;;;;;1.30;1.20;;;14.30;1.40;;;15.83;100.00;95700.77;619099;226;31841;-71
2021/06/07 05:35:51;;;;;;;1.40;1.30;;;14.40;1.40;;;15.89;100.00;95707.09;646446;216;31717;-70
2021/06/07 05:38:32;;;;;;;2.58;1.20;;;14.50;1.40;;;16.09;100.00;95710.90;646680;216;32585;-72
2021/06/07 05:41:14;;;;;;;2.05;1.50;;;14.60;1.40;;;15.96;100.00;95709.33;618882;222;32461;-71
2021/06/07 05:43:56;;;;;;;2.00;1.80;;;14.60;1.40;;;15.95;100.00;95716.53;646788;216;31569;-70
2021/06/07 05:46:40;;;;;;;1.83;1.40;;;14.60;1.40;;;16.30;100.00;95713.73;645628;216;31637;-71
2021/06/07 05:49:28;;;;;;;1.48;1.37;;;14.80;1.40;;;16.59;100.00;95717.95;646687;212;31555;-72
2021/06/07 05:52:16;;;;;;;1.67;1.58;;;14.90;1.40;;;16.79;100.00;95716.38;645476;216;31542;-70
2021/06/07 05:54:58;;;;;;;1.50;1.40;;;15.00;1.40;;;16.66;100.00;95718.36;646350;216;42201;-70
2021/06/07 05:57:39;;;;;;;1.50;1.40;;;15.00;1.40;;;16.58;100.00;95722.34;647604;216;31542;-72
2021/06/07 06:00:22;;;;;;;1.80;1.40;;;15.00;1.40;;;16.73;100.00;95724.84;647628;212;31543;-70
2021/06/07 06:05:43;;;;;;;2.00;1.45;;;15.20;1.40;;;16.83;100.00;95720.28;649481;216;31572;-73
2021/06/07 06:10:52;;;;;;;1.60;1.50;;;15.10;1.40;;;16.76;100.00;95722.74;647959;216;42159;-71
2021/06/07 06:13:34;;;;;;;1.50;1.40;;;15.20;1.40;;;17.02;100.00;95723.03;645520;212;31565;-71
2021/06/07 06:16:22;;;;;;;1.70;1.60;;;15.30;1.40;;;17.20;100.00;95721.86;646368;216;31542;-72
2021/06/07 06:19:10;;;;;;;1.65;1.55;;;15.40;1.40;;;17.30;100.00;95723.43;645412;216;32182;-72
2021/06/07 06:21:51;;;;;;;3.42;1.73;;;15.60;1.40;;;17.37;100.00;95724.16;645717;216;31703;-72
2021/06/07 06:24:34;;;;;;;1.70;1.60;;;15.60;1.40;;;17.64;100.00;95724.06;646585;216;31578;-73
2021/06/07 06:27:16;;;;;;;1.95;1.58;;;15.80;1.40;;;17.48;100.00;95725.03;647457;212;31688;-71
2021/06/07 06:29:57;;;;;;;2.47;2.30;;;15.60;1.40;;;17.60;100.00;95725.83;646368;216;31567;-72
2021/06/07 06:32:42;;;;;;;2.50;1.60;;;15.80;1.40;;;17.79;100.00;95725.73;645764;216;31591;-71
2021/06/07 06:35:51;;;;;;;1.62;1.52;;;15.90;1.40;;;18.06;100.00;95732.37;648059;216;42315;-72
2021/06/07 06:38:32;;;;;;;2.30;1.60;;;16.20;1.40;;;18.20;100.00;95737.00;645871;216;31640;-72
2021/06/07 06:41:14;;;;;;;1.92;1.80;;;16.40;1.40;;;18.14;100.00;95738.41;645666;216;32047;-72
2021/06/07 06:43:58;;;;;;;1.50;1.40;;;16.30;1.40;;;17.97;100.00;95735.69;644967;216;31528;-72
2021/06/07 06:46:45;;;;;;;1.20;1.10;;;16.20;1.40;;;18.17;100.00;95736.48;646153;216;31624;-72
2021/06/07 06:49:27;;;;;;;0.95;0.82;;;16.30;1.40;;;18.29;100.00;95735.11;617302;225;32026;-71
2021/06/07 06:52:09;;;;;;;1.37;0.90;;;16.40;1.40;;;18.02;100.00;95736.64;618399;226;31918;-72
2021/06/07 06:54:59;;;;;;;1.50;1.12;;;16.30;1.40;;;18.58;100.00;95739.10;646337;216;31531;-72
2021/06/07 06:57:43;;;;;;;1.10;1.00;;;16.70;1.40;;;18.91;100.00;95738.02;647058;216;31516;-72
2021/06/07 07:00:27;;;;;;;1.40;1.00;;;16.90;1.40;;;18.58;100.00;95735.92;646430;216;31511;-72
2021/06/07 07:05:49;;;;;;;1.93;1.17;;;16.60;1.40;;;18.45;100.00;95734.87;645647;216;31699;-72
2021/06/07 07:08:33;;;;;;;0.80;0.80;;;16.70;1.40;;;18.61;100.00;95735.81;646127;216;32130;-72
2021/06/07 07:11:20;;;;;;;1.90;1.12;;;17.00;1.40;;;18.98;100.00;95734.91;642627;217;31585;-71
2021/06/07 07:14:02;;;;;;;0.80;0.80;;;17.20;1.40;;;19.53;100.00;95741.08;643570;212;31674;-72
2021/06/07 07:16:52;;;;;;;0.60;0.47;;;17.60;1.40;;;18.79;98.45;95740.81;646501;216;31594;-73
2021/06/07 07:19:37;;;;;;;0.70;0.62;;;17.10;1.40;;;19.51;95.94;95740.71;644850;216;31529;-72
2021/06/07 07:22:19;;;;;;;0.80;0.70;;;17.60;1.40;;;19.70;93.67;95739.64;646592;216;31478;-71
2021/06/07 07:25:04;;;;;;;0.80;0.60;;;17.90;1.40;;;20.00;94.91;95734.80;646897;212;31575;-71
2021/06/07 07:27:46;;;;;;;1.25;0.70;;;17.90;1.40;;;20.84;90.26;95742.05;647848;212;31469;-72
2021/06/07 07:30:28;;;;;;;0.70;0.70;;;18.40;1.40;;;20.60;90.56;95744.16;647502;212;31466;-72
2021/06/07 07:35:52;;;;;;;0.90;0.80;;;18.90;1.40;;;21.82;88.04;95741.44;645861;216;31569;-71
2021/06/07 07:38:39;;;;;;;0.80;0.73;;;18.90;1.40;;;21.79;83.55;95745.97;646733;212;31538;-73
2021/06/07 07:41:21;;;;;;;0.93;0.82;;;18.90;1.40;;;21.92;86.47;95745.09;646222;212;42116;-73
2021/06/07 07:44:04;;;;;;;1.00;0.90;;;19.00;1.40;;;21.85;90.03;95746.27;646954;216;42646;-73
2021/06/07 07:46:45;;;;;;;0.98;0.88;;;19.10;1.40;;;21.66;84.03;95744.09;646948;216;32060;-72
2021/06/07 07:49:33;;;;;;;1.45;0.98;;;18.70;1.40;;;21.20;89.70;95745.40;645767;212;31448;-73
2021/06/07 07:52:15;;;;;;;1.00;0.90;;;18.50;1.40;;;21.56;88.24;95741.19;644920;215;42166;-71
2021/06/07 07:54:57;;;;;;;0.98;0.80;;;18.50;1.40;;;21.54;88.84;95743.10;646286;212;42122;-72
2021/06/07 07:57:44;;;;;;;1.10;1.00;;;18.60;1.40;;;20.88;86.69;95748.61;646577;212;31889;-72
2021/06/07 08:00:26;;;;;;;1.10;1.00;;;18.40;1.40;;;21.20;86.97;95745.97;646667;212;31579;-72
2021/06/07 08:03:13;;;;;;;1.40;0.90;;;18.50;1.40;;;21.30;88.67;95746.98;645623;216;32188;-73
2021/06/07 08:05:55;;;;;;;1.70;0.80;;;18.70;1.40;;;21.95;88.75;95746.42;647972;212;31769;-71
2021/06/07 08:08:37;;;;;;;1.33;1.17;;;18.90;1.40;;;22.63;87.39;95749.36;646825;216;32108;-72
2021/06/07 08:11:20;;;;;;;2.37;1.20;;;19.20;1.40;;;22.27;88.62;95748.58;646474;216;32126;-72
2021/06/07 08:14:00;;;;;;;2.22;1.30;;;19.20;1.40;;;21.83;87.38;95754.72;648204;216;32438;-71
2021/06/07 08:16:42;;;;;;;1.70;1.00;;;18.90;1.40;;;21.83;85.34;95749.88;647271;216;32145;-72
2021/06/07 08:19:24;;;;;;;2.00;1.20;;;18.90;1.40;;;22.34;85.45;95746.96;646013;216;32260;-72
2021/06/07 08:22:05;;;;;;;1.90;1.27;;;19.30;1.40;;;22.77;79.08;95750.56;645864;216;32105;-72
2021/06/07 08:24:47;;;;;;;1.80;1.33;;;19.90;1.40;;;23.39;83.25;95756.41;647124;216;32107;-72
2021/06/07 08:27:29;;;;;;;2.40;1.62;;;20.50;1.40;;;24.53;77.24;95749.84;647215;216;32197;-71
2021/06/07 08:30:11;;;;;;;3.33;1.65;;;21.30;1.40;;;24.72;71.89;95744.81;646843;212;32102;-72
2021/06/07 08:32:53;;;;;;;2.00;1.50;;;20.80;1.40;;;24.32;72.93;95742.11;646582;212;31568;-71
2021/06/07 08:35:54;;;;;;;1.90;1.60;;;20.90;1.40;;;24.17;73.79;95747.53;647113;216;31590;-72
2021/06/07 08:41:10;;;;;;;2.67;1.70;;;21.50;1.40;;;25.27;71.54;95734.92;647136;216;31846;-72
2021/06/07 08:43:52;;;;;;;2.40;1.47;;;21.60;1.40;;;24.19;67.88;95742.84;647707;212;31591;-72
2021/06/07 08:46:33;;;;;;;1.80;1.30;;;20.80;1.40;;;22.71;71.21;95744.73;645456;216;31679;-72
2021/06/07 08:49:15;;;;;;;1.30;1.20;;;20.00;1.40;;;23.03;71.17;95746.27;646172;216;42179;-72
2021/06/07 08:51:57;;;;;;;2.08;1.40;;;20.20;1.40;;;23.55;76.05;95743.05;635413;220;31660;-72
2021/06/07 08:54:38;;;;;;;1.45;0.90;;;20.50;1.40;;;23.89;73.19;95743.80;645750;212;31497;-72
2021/06/07 08:57:20;;;;;;;1.20;1.10;;;21.00;1.40;;;25.00;71.01;95743.22;646973;212;31781;-72
2021/06/07 09:00:02;;;;;;;1.20;1.10;;;21.80;1.40;;;24.90;68.51;95741.91;647647;216;31505;-72
2021/06/07 09:02:44;;;;;;;1.73;1.00;;;21.90;1.40;;;24.68;70.49;95743.72;645716;212;31506;-71
2021/06/07 09:05:25;;;;;;;1.37;1.10;;;21.60;1.40;;;25.45;68.22;95747.44;647484;212;31489;-71
2021/06/07 09:08:08;;;;;;;1.40;1.00;;;21.70;1.40;;;25.69;66.60;95748.45;645950;216;31638;-72
2021/06/07 09:10:50;;;;;;;2.10;1.10;;;21.40;1.40;;;24.78;62.75;95749.76;646981;216;31586;-72
2021/06/07 09:13:31;;;;;;;1.10;1.00;;;21.10;1.40;;;24.10;65.89;95753.77;619345;226;32051;-72
2021/06/07 09:16:13;;;;;;;1.37;1.17;;;21.00;1.40;;;24.38;73.12;95745.77;646452;214;31549;-71
2021/06/07 09:18:55;;;;;;;1.52;0.90;;;20.90;1.40;;;24.06;67.87;95750.34;645927;216;31508;-71
2021/06/07 09:21:36;;;;;;;1.17;1.08;;;20.50;1.40;;;22.69;72.53;95746.92;646792;216;31540;-72
2021/06/07 09:24:18;;;;;;;1.40;1.20;;;19.90;1.40;;;23.19;68.92;95752.56;644885;216;32116;-72
2021/06/07 09:27:07;;;;;;;1.87;0.70;;;19.70;1.40;;;22.89;73.98;95748.33;619363;226;32018;-73
2021/06/07 09:29:48;;;;;;;1.23;0.90;;;19.60;1.40;;;22.97;72.08;95749.03;646645;212;31561;-74
2021/06/07 09:32:32;;;;;;;2.37;0.90;;;19.60;1.40;;;22.59;74.00;95745.13;647583;216;31888;-71
2021/06/07 09:36:04;;;;;;;1.33;1.23;;;19.50;1.40;;;23.08;74.96;95746.14;647544;216;31612;-71
2021/06/07 09:39:08;;;;;;;1.63;0.90;;;19.70;1.40;;;22.54;72.22;95745.22;618329;222;32903;-71
2021/06/07 09:44:44;;;;;;;1.40;1.30;;;19.50;1.40;;;22.11;77.13;95754.41;646337;212;33161;-72
2021/06/07 09:47:28;;;;;;;2.67;1.23;;;19.40;1.40;;;21.94;79.31;95755.75;646445;212;31522;-72
2021/06/07 09:50:11;;;;;;;1.40;1.10;;;19.20;1.40;;;22.02;79.03;95753.58;647874;216;31527;-72
2021/06/07 09:52:55;;;;;;;1.80;1.40;;;19.20;1.40;;;22.08;78.70;95757.62;646416;212;31572;-71
2021/06/07 09:55:35;;;;;;;2.00;1.50;;;19.20;1.40;;;22.23;77.66;95759.27;645556;216;31596;-71
2021/06/07 09:58:20;;;;;;;1.87;1.37;;;19.30;1.40;;;22.08;76.08;95762.59;646292;216;31597;-71
2021/06/07 10:01:01;;;;;;;2.25;1.40;;;19.30;1.40;;;22.42;76.52;95761.44;618957;225;32164;-71
2021/06/07 10:03:51;;;;;;;1.75;1.30;;;19.40;1.40;;;22.62;75.30;95759.08;647195;216;31592;-71
2021/06/07 10:06:35;;;;;;;1.90;1.30;;;19.40;1.40;;;22.64;74.66;95758.84;646814;216;31826;-70
2021/06/07 10:09:19;;;;;;;2.40;1.50;;;19.60;1.40;;;23.02;73.43;95759.59;645045;216;31591;-71
2021/06/07 10:11:58;;;;;;;1.60;1.50;;;19.70;1.40;;;22.63;77.56;95763.87;646383;212;31682;-71
2021/06/07 10:14:40;;;;;;;2.40;1.40;;;19.50;1.40;;;23.15;75.29;95769.02;614099;226;32088;-70
2021/06/07 10:17:21;;;;;;;1.80;1.30;;;19.60;1.40;;;22.78;73.09;95768.18;646688;212;34553;-71
2021/06/07 10:23:03;;;;;;;1.83;1.58;;;19.20;1.40;;;22.00;76.17;95764.81;646346;212;31529;-70
2021/06/07 10:25:45;;;;;;;2.00;1.60;;;18.90;1.40;;;21.30;79.10;95765.64;644655;216;31534;-70
2021/06/07 10:28:28;;;;;;;1.80;1.50;;;18.60;1.40;;;21.32;78.71;95765.95;646195;212;31571;-72
2021/06/07 10:31:10;;;;;;;1.67;1.58;;;18.50;1.40;;;21.08;81.07;95766.75;647012;212;32172;-71
2021/06/07 10:35:54;;;;;;;2.10;2.00;;;18.70;1.40;;;20.53;85.38;95765.80;646155;216;31691;-71
2021/06/07 10:38:35;;;;;;;2.80;2.40;;;18.40;1.40;;;20.66;85.44;95767.12;647020;212;32143;-70
2021/06/07 10:41:20;;;;;;;2.50;2.30;;;18.40;1.40;;;20.31;87.29;95764.94;644635;212;32174;-71
2021/06/07 10:44:07;;;;;;;2.90;2.70;;;18.50;1.40;;;20.99;84.62;95766.06;646637;216;32155;-72
2021/06/07 10:46:55;;;;;;;2.83;2.62;;;18.80;1.40;;;21.36;84.43;95767.47;645520;216;31954;-72
2021/06/07 10:49:46;;;;;;;2.97;2.67;;;19.20;1.40;;;21.76;81.54;95767.41;646013;216;31579;-72
2021/06/07 10:52:28;;;;;;;2.50;2.30;;;19.50;1.40;;;22.23;79.73;95770.20;646850;212;31965;-71
2021/06/07 10:55:15;;;;;;;2.60;2.40;;;19.70;1.40;;;22.94;75.85;95771.27;646486;216;31558;-71
2021/06/07 10:58:01;;;;;;;2.53;2.33;;;20.20;1.40;;;23.38;72.37;95774.15;646021;213;32244;-71
2021/06/07 11:00:43;;;;;;;2.40;2.20;;;20.40;1.40;;;23.10;73.88;95775.05;619426;222;32474;-71
2021/06/07 11:03:27;;;;;;;2.50;2.30;;;20.30;1.40;;;23.49;72.07;95769.71;645491;212;32035;-71
2021/06/07 11:06:08;;;;;;;3.17;2.83;;;20.20;1.40;;;23.14;71.71;95770.89;645894;216;31691;-71
2021/06/07 11:09:04;;;;;;;3.90;2.40;;;20.30;1.40;;;24.15;70.33;95766.05;646762;216;31585;-71
2021/06/07 11:11:47;;;;;;;2.50;2.30;;;21.10;1.40;;;24.49;69.05;95759.72;645156;216;32587;-71
2021/06/07 11:14:28;;;;;;;2.62;2.03;;;21.70;1.40;;;25.52;65.08;95759.72;642192;216;31651;-71
2021/06/07 11:17:25;;;;;;;2.15;1.95;;;22.50;1.40;;;27.06;62.69;95752.85;646293;212;31579;-71
2021/06/07 11:20:07;;;;;;;3.12;2.05;;;23.00;1.40;;;27.53;58.11;95753.80;645503;216;42251;-71
2021/06/07 11:25:23;;;;;;;2.45;2.25;;;23.20;1.40;;;26.55;57.26;95751.00;647183;216;31540;-72
2021/06/07 11:28:04;;;;;;;2.10;1.85;;;22.30;1.40;;;26.83;60.63;95749.83;645330;214;31578;-71
2021/06/07 11:30:46;;;;;;;3.53;1.87;;;22.70;1.40;;;27.51;55.58;95750.48;646026;212;31588;-72
2021/06/07 11:35:53;;;;;;;2.20;2.00;;;23.20;1.40;;;28.05;55.36;95737.59;646214;212;33495;-71
2021/06/07 11:38:35;;;;;;;3.60;2.10;;;24.00;1.40;;;28.27;53.69;95733.59;646331;212;31588;-71
2021/06/07 11:41:46;;;;;;;2.45;2.20;;;24.10;1.40;;;27.96;56.99;95733.53;647302;216;31929;-72
2021/06/07 11:44:46;;;;;;;2.00;1.90;;;23.90;1.40;;;28.71;55.08;95733.23;646413;212;31591;-71
2021/06/07 11:47:49;;;;;;;2.17;1.60;;;24.10;1.40;;;29.20;53.84;95727.74;647090;216;31605;-72
2021/06/07 11:50:29;;;;;;;1.73;1.60;;;24.00;1.40;;;29.92;53.02;95725.66;646979;216;31630;-71
2021/06/07 11:53:15;;;;;;;2.07;1.87;;;24.00;1.40;;;29.53;52.08;95720.77;647198;216;32130;-70
2021/06/07 11:55:58;;;;;;;1.70;1.60;;;23.80;1.40;;;28.46;54.73;95723.60;646241;216;31793;-72
2021/06/07 11:58:45;;;;;;;1.98;1.73;;;23.30;1.40;;;27.14;54.44;95721.08;646868;216;31556;-70
2021/06/07 12:01:26;;;;;;;2.00;1.80;;;22.80;1.40;;;26.95;58.18;95717.77;647724;216;31595;-71
2021/06/07 12:04:08;;;;;;;2.65;2.10;;;23.00;1.40;;;28.17;55.61;95712.16;646700;216;31567;-71
2021/06/07 12:06:50;;;;;;;1.90;1.80;;;24.10;1.40;;;29.67;49.44;95703.72;617643;222;31882;-72
2021/06/07 12:09:31;;;;;;;1.70;1.60;;;24.80;1.40;;;31.05;48.96;95694.80;646485;216;31561;-71
2021/06/07 12:12:16;;;;;;;1.75;1.60;;;25.50;1.40;;;32.66;45.36;95691.28;647793;216;31835;-71
2021/06/07 12:15:16;;;;;;;1.98;1.80;;;26.00;1.40;;;32.97;41.39;95688.63;638167;216;31813;-73